Time;durP1;ratioP1;P1;durP2;ratioP2;P2;SDS_P1;SDS_P2;PMS_P1;PMS_P2;Temp;Humidity;BMP_temperature;BMP_pressure;BME280_temperature;BME280_humidity;BME280_pressure;Samples;Min_cycle;Max_cycle;Signal;HPM_P1;HPM_P2
2022/04/01 00:02:19;;;;;;;6.88;4.43;;;1.20;99.90;;;;;;5036391;28;20088;-84
2022/04/01 00:04:45;;;;;;;7.15;4.38;;;1.20;99.90;;;;;;5035651;28;20136;-85
2022/04/01 00:07:11;;;;;;;6.30;3.90;;;1.20;99.90;;;;;;5035921;28;20085;-84
2022/04/01 00:09:37;;;;;;;7.53;4.90;;;1.20;99.90;;;;;;5035850;28;20037;-85
2022/04/01 00:12:08;;;;;;;8.90;4.60;;;1.20;99.90;;;;;;5035661;28;20074;-85
2022/04/01 00:14:34;;;;;;;6.93;4.97;;;1.20;99.90;;;;;;5035846;28;20037;-84
2022/04/01 00:17:00;;;;;;;6.97;5.05;;;1.10;99.90;;;;;;5035523;28;20053;-86
2022/04/01 00:19:26;;;;;;;9.45;5.43;;;1.10;99.90;;;;;;5035994;28;20032;-86
2022/04/01 00:21:52;;;;;;;7.63;4.57;;;1.10;99.90;;;;;;5035798;28;20022;-85
2022/04/01 00:24:18;;;;;;;6.43;4.80;;;1.10;99.90;;;;;;5035469;28;20458;-85
2022/04/01 00:26:45;;;;;;;8.30;5.38;;;1.10;99.90;;;;;;5035888;28;20109;-85
2022/04/01 00:29:15;;;;;;;8.38;4.68;;;1.10;99.90;;;;;;5035516;28;20049;-84
2022/04/01 00:31:48;;;;;;;9.15;5.00;;;1.20;99.90;;;;;;5036729;28;20034;-84
2022/04/01 00:34:15;;;;;;;7.15;4.30;;;1.10;99.90;;;;;;5035429;28;20391;-85
2022/04/01 00:36:42;;;;;;;7.18;5.07;;;1.20;99.90;;;;;;5036856;28;20125;-85
2022/04/01 00:39:08;;;;;;;5.60;4.35;;;1.10;99.90;;;;;;5035202;28;20179;-86
2022/04/01 00:41:34;;;;;;;9.65;5.00;;;1.10;99.90;;;;;;5035486;28;20069;-86
2022/04/01 00:44:22;;;;;;;9.52;5.30;;;1.20;99.90;;;;;;5035093;28;20034;-85
2022/04/01 00:46:54;;;;;;;7.45;5.00;;;1.10;99.90;;;;;;5036345;28;20041;-84
2022/04/01 00:49:21;;;;;;;7.18;5.20;;;1.10;99.90;;;;;;5035150;28;20388;-84
2022/04/01 00:51:49;;;;;;;7.13;5.20;;;1.10;99.90;;;;;;5036883;28;20038;-85
2022/04/01 00:54:16;;;;;;;8.13;4.60;;;1.10;99.90;;;;;;5034934;28;20025;-84
2022/04/01 00:56:43;;;;;;;7.00;4.82;;;1.10;99.90;;;;;;5036661;28;20168;-84
2022/04/01 00:59:09;;;;;;;7.28;4.70;;;1.10;99.90;;;;;;5034895;28;20042;-84
2022/04/01 01:01:36;;;;;;;7.35;4.70;;;1.10;99.90;;;;;;5034711;28;20033;-84
2022/04/01 01:04:04;;;;;;;7.28;5.15;;;1.10;99.90;;;;;;5035146;28;20044;-84
2022/04/01 01:06:31;;;;;;;7.93;5.45;;;1.10;99.90;;;;;;5034955;28;20080;-85
2022/04/01 01:08:59;;;;;;;9.80;6.13;;;1.00;99.90;;;;;;5035207;28;20443;-85
2022/04/01 01:11:25;;;;;;;7.78;5.97;;;1.00;99.90;;;;;;5036291;28;20030;-84
2022/04/01 01:13:52;;;;;;;9.75;6.22;;;1.00;99.90;;;;;;5035705;28;20071;-84
2022/04/01 01:16:19;;;;;;;9.20;6.07;;;1.00;99.90;;;;;;5036065;28;20033;-85
2022/04/01 01:18:46;;;;;;;8.70;6.47;;;1.00;99.90;;;;;;5034952;28;20116;-84
2022/04/01 01:21:11;;;;;;;8.98;6.18;;;1.00;99.90;;;;;;5051274;28;20042;-84
2022/04/01 01:23:38;;;;;;;8.18;6.10;;;0.90;99.90;;;;;;5034490;28;20045;-84
2022/04/01 01:26:03;;;;;;;7.88;6.22;;;0.90;99.90;;;;;;5051385;28;20034;-84
2022/04/01 01:28:30;;;;;;;7.88;6.45;;;0.90;99.90;;;;;;5047972;28;20059;-83
2022/04/01 01:30:59;;;;;;;9.13;7.10;;;0.90;99.90;;;;;;5056060;28;20029;-86
2022/04/01 01:33:32;;;;;;;10.15;6.95;;;0.90;99.90;;;;;;5056726;28;20044;-85
2022/04/01 01:35:58;;;;;;;10.02;7.88;;;0.90;99.90;;;;;;5038099;28;20024;-86
2022/04/01 01:38:23;;;;;;;10.20;7.05;;;0.90;99.90;;;;;;5037728;28;20567;-86
2022/04/01 01:40:50;;;;;;;10.40;7.63;;;0.80;99.90;;;;;;5037690;28;20037;-84
2022/04/01 01:43:16;;;;;;;9.00;7.10;;;0.80;99.90;;;;;;5038476;28;20063;-85
2022/04/01 01:45:41;;;;;;;10.55;7.95;;;0.80;99.90;;;;;;5037845;28;20487;-85
2022/04/01 01:48:07;;;;;;;9.55;7.28;;;0.80;99.90;;;;;;5055448;28;20040;-84
2022/04/01 01:56:01;;;;;;;8.32;5.88;;;0.80;99.90;;;;;;5054321;28;20048;-85
2022/04/01 01:58:27;;;;;;;7.20;5.72;;;0.80;99.90;;;;;;5035889;28;20037;-84
2022/04/01 02:00:53;;;;;;;7.45;5.28;;;0.80;99.90;;;;;;5037007;28;20126;-84
2022/04/01 02:03:19;;;;;;;7.63;5.60;;;0.80;99.90;;;;;;5037108;28;20037;-84
2022/04/01 02:05:44;;;;;;;7.90;6.05;;;0.80;99.90;;;;;;5036794;28;20029;-85
2022/04/01 02:08:10;;;;;;;7.90;5.38;;;0.80;99.90;;;;;;5036856;28;20051;-85
2022/04/01 02:10:36;;;;;;;7.47;5.60;;;0.80;99.90;;;;;;5054295;28;20064;-85
2022/04/01 02:13:03;;;;;;;7.82;5.88;;;0.80;99.90;;;;;;5036474;28;20037;-85
2022/04/01 02:15:29;;;;;;;7.80;5.75;;;0.70;99.90;;;;;;5036655;28;20033;-85
2022/04/01 02:17:55;;;;;;;9.05;6.53;;;0.70;99.90;;;;;;5036187;28;20036;-85
2022/04/01 02:20:20;;;;;;;7.60;5.65;;;0.70;99.90;;;;;;5036174;28;20033;-84
2022/04/01 02:22:46;;;;;;;7.43;5.68;;;0.80;99.90;;;;;;5053797;28;20063;-84
2022/04/01 02:25:11;;;;;;;9.43;6.28;;;0.70;99.90;;;;;;5053479;28;20041;-84
2022/04/01 02:27:38;;;;;;;9.98;6.28;;;0.80;99.90;;;;;;5036145;28;20033;-86
2022/04/01 02:30:10;;;;;;;8.45;6.43;;;0.70;99.90;;;;;;5054017;28;20095;-84
2022/04/01 02:32:39;;;;;;;7.35;5.95;;;0.70;99.90;;;;;;5036702;28;20069;-84
2022/04/01 02:35:05;;;;;;;8.73;6.35;;;0.70;99.90;;;;;;5036330;28;20021;-83
2022/04/01 02:37:31;;;;;;;7.13;5.65;;;0.70;99.90;;;;;;5036228;28;20039;-85
2022/04/01 02:39:57;;;;;;;7.68;6.25;;;0.70;99.90;;;;;;5035302;28;20138;-86
2022/04/01 02:42:23;;;;;;;8.55;6.45;;;0.70;99.90;;;;;;5035650;28;20494;-85
2022/04/01 02:44:52;;;;;;;7.95;6.15;;;0.70;99.90;;;;;;5035375;28;20069;-85
2022/04/01 02:47:18;;;;;;;7.15;5.68;;;0.70;99.90;;;;;;5035555;28;20025;-84
2022/04/01 02:49:44;;;;;;;7.60;5.20;;;0.60;99.90;;;;;;5035412;28;20534;-83
2022/04/01 02:52:09;;;;;;;7.38;5.80;;;0.70;99.90;;;;;;5052807;28;20033;-84
2022/04/01 02:54:38;;;;;;;8.50;6.53;;;0.60;99.90;;;;;;5035050;28;20029;-84
2022/04/01 02:57:04;;;;;;;7.05;5.53;;;0.70;99.90;;;;;;5052807;28;20074;-84
2022/04/01 02:59:29;;;;;;;7.72;5.68;;;0.70;99.90;;;;;;5056248;28;20407;-84
2022/04/01 03:01:55;;;;;;;10.40;6.63;;;0.70;99.90;;;;;;5036119;28;20048;-84
2022/04/01 03:04:22;;;;;;;7.47;5.95;;;0.70;99.90;;;;;;5034883;28;20135;-84
2022/04/01 03:06:49;;;;;;;8.68;6.88;;;0.70;99.90;;;;;;5035026;28;20055;-85
2022/04/01 03:09:15;;;;;;;8.00;6.45;;;0.70;99.90;;;;;;5037367;28;20057;-85
2022/04/01 03:11:42;;;;;;;8.70;6.32;;;0.70;99.90;;;;;;5038434;28;20040;-84
2022/04/01 03:14:09;;;;;;;7.82;6.15;;;0.70;99.90;;;;;;5056677;28;20025;-84
2022/04/01 03:16:37;;;;;;;8.55;7.00;;;0.70;99.90;;;;;;5057106;28;20604;-85
2022/04/01 03:19:08;;;;;;;8.18;6.40;;;0.60;99.90;;;;;;5038728;28;20047;-84
2022/04/01 03:21:35;;;;;;;9.02;6.90;;;0.70;99.90;;;;;;5038478;28;20029;-83
2022/04/01 03:24:02;;;;;;;8.57;6.80;;;0.60;99.90;;;;;;5038012;28;20083;-84
2022/04/01 03:26:28;;;;;;;7.45;6.07;;;0.70;99.90;;;;;;5038051;28;20429;-84
2022/04/01 03:28:55;;;;;;;9.27;6.57;;;0.70;99.90;;;;;;5037807;28;20057;-84
2022/04/01 03:31:20;;;;;;;9.75;6.53;;;0.70;99.90;;;;;;5038246;28;20033;-84
2022/04/01 03:33:46;;;;;;;7.78;6.15;;;0.70;99.90;;;;;;5038356;28;20449;-84
2022/04/01 03:36:13;;;;;;;7.38;5.60;;;0.70;99.90;;;;;;5038206;28;20029;-84
2022/04/01 03:38:39;;;;;;;7.72;6.18;;;0.70;99.90;;;;;;5055958;28;20033;-84
2022/04/01 03:41:06;;;;;;;7.18;5.90;;;0.60;99.90;;;;;;5037561;28;20403;-84
2022/04/01 03:43:35;;;;;;;9.80;6.90;;;0.60;99.90;;;;;;5055925;28;20066;-85
2022/04/01 03:46:10;;;;;;;7.50;5.72;;;0.60;99.90;;;;;;5037755;28;20025;-84
2022/04/01 03:49:05;;;;;;;9.52;6.80;;;0.60;99.90;;;;;;5037977;28;20098;-84
2022/04/01 03:51:31;;;;;;;9.25;6.93;;;0.60;99.90;;;;;;5036295;28;20031;-84
2022/04/01 03:54:00;;;;;;;8.93;6.72;;;0.60;99.90;;;;;;5055678;28;20032;-83
2022/04/01 03:56:32;;;;;;;9.70;6.68;;;0.60;99.90;;;;;;5054053;28;20163;-84
2022/04/01 03:59:07;;;;;;;9.10;6.93;;;0.50;99.90;;;;;;5037964;28;20132;-84
2022/04/01 04:01:35;;;;;;;8.38;6.70;;;0.60;99.90;;;;;;5037754;28;20380;-83
2022/04/01 04:04:01;;;;;;;7.93;5.72;;;0.50;99.90;;;;;;5037465;28;20049;-84
2022/04/01 04:06:27;;;;;;;7.35;6.13;;;0.50;99.90;;;;;;5037624;28;20118;-85
2022/04/01 04:08:57;;;;;;;7.25;5.90;;;0.50;99.90;;;;;;5055689;28;20037;-85
2022/04/01 04:11:29;;;;;;;7.47;5.57;;;0.50;99.90;;;;;;5037236;28;20037;-85
2022/04/01 04:13:57;;;;;;;8.15;5.07;;;0.50;99.90;;;;;;5037832;28;20033;-83
2022/04/01 04:16:45;;;;;;;8.43;6.00;;;0.50;99.90;;;;;;5037768;28;20056;-84
2022/04/01 04:19:29;;;;;;;10.88;5.90;;;0.50;99.90;;;;;;5037521;28;20037;-85
2022/04/01 04:22:13;;;;;;;7.95;5.88;;;0.50;99.90;;;;;;5037304;28;20049;-84
2022/04/01 04:24:54;;;;;;;7.30;5.55;;;0.50;99.90;;;;;;5036810;28;20097;-85
2022/04/01 04:27:27;;;;;;;7.32;5.60;;;0.50;99.90;;;;;;5054814;28;20043;-84
2022/04/01 04:30:08;;;;;;;7.35;5.78;;;0.50;99.90;;;;;;5055144;28;20043;-83
2022/04/01 04:32:35;;;;;;;10.32;6.15;;;0.50;99.90;;;;;;5055504;28;20036;-84
2022/04/01 04:35:05;;;;;;;8.32;5.63;;;0.50;99.90;;;;;;5054819;28;20032;-85
2022/04/01 04:37:33;;;;;;;9.25;5.80;;;0.50;99.90;;;;;;5037328;28;20039;-84
2022/04/01 04:39:59;;;;;;;8.63;5.82;;;0.50;99.90;;;;;;5037099;28;20029;-85
2022/04/01 04:42:27;;;;;;;8.20;5.30;;;0.50;99.90;;;;;;5037292;28;20116;-85
2022/04/01 04:44:53;;;;;;;8.02;5.68;;;0.50;99.90;;;;;;5036950;28;20040;-84
2022/04/01 04:47:25;;;;;;;6.57;5.22;;;0.50;99.90;;;;;;5036721;28;20426;-83
2022/04/01 04:49:53;;;;;;;7.00;4.90;;;0.50;99.90;;;;;;5036902;28;20036;-83
2022/04/01 04:52:20;;;;;;;9.70;5.22;;;0.50;99.90;;;;;;5054484;28;20037;-83
2022/04/01 04:54:47;;;;;;;7.10;4.40;;;0.50;99.90;;;;;;5036630;28;20052;-83
2022/04/01 04:57:13;;;;;;;7.57;4.88;;;0.50;99.90;;;;;;5037036;28;20029;-84
2022/04/01 04:59:42;;;;;;;9.35;5.18;;;0.50;99.90;;;;;;5036698;28;20040;-84
2022/04/01 05:02:19;;;;;;;7.03;4.75;;;0.50;99.90;;;;;;5036121;28;20510;-83
2022/04/01 05:04:56;;;;;;;8.48;5.38;;;0.50;99.90;;;;;;5036098;28;20045;-84
2022/04/01 05:07:37;;;;;;;6.32;4.63;;;0.50;99.90;;;;;;5054400;28;20542;-84
2022/04/01 05:10:12;;;;;;;8.30;4.93;;;0.50;99.90;;;;;;5036684;28;20033;-84
2022/04/01 05:12:51;;;;;;;6.25;4.10;;;0.50;99.90;;;;;;5036470;28;20037;-83
2022/04/01 05:15:26;;;;;;;6.45;4.35;;;0.50;99.90;;;;;;5036016;28;20033;-84
2022/04/01 05:17:54;;;;;;;6.75;4.60;;;0.50;99.90;;;;;;5036065;28;20072;-84
2022/04/01 05:20:28;;;;;;;8.48;4.50;;;0.50;99.90;;;;;;5036176;28;20395;-84
2022/04/01 05:23:14;;;;;;;7.55;4.68;;;0.50;99.90;;;;;;5053727;28;20052;-84
2022/04/01 05:25:50;;;;;;;9.57;4.47;;;0.50;99.90;;;;;;5035825;28;20040;-82
2022/04/01 05:28:30;;;;;;;8.45;4.53;;;0.50;99.90;;;;;;5035342;28;20454;-83
2022/04/01 05:31:04;;;;;;;7.30;4.30;;;0.50;99.90;;;;;;5035631;28;20128;-84
2022/04/01 05:33:42;;;;;;;7.28;4.15;;;0.50;99.90;;;;;;5036295;28;20029;-85
2022/04/01 05:36:10;;;;;;;7.05;4.13;;;0.50;99.90;;;;;;5036530;28;20024;-84
2022/04/01 05:38:36;;;;;;;8.80;4.80;;;0.50;99.90;;;;;;5035835;28;20025;-84
2022/04/01 05:41:02;;;;;;;6.30;4.32;;;0.50;99.90;;;;;;5052481;28;20028;-84
2022/04/01 05:43:30;;;;;;;5.38;4.03;;;0.50;99.90;;;;;;5053672;28;20051;-84
2022/04/01 05:45:56;;;;;;;8.02;3.55;;;0.50;99.90;;;;;;5035945;28;20059;-83
2022/04/01 05:48:22;;;;;;;5.65;3.58;;;0.50;99.90;;;;;;5035495;28;20048;-82
2022/04/01 05:50:51;;;;;;;6.45;4.05;;;0.60;99.90;;;;;;5035724;28;20036;-82
2022/04/01 05:53:20;;;;;;;5.45;3.58;;;0.60;99.90;;;;;;5053090;28;20033;-83
2022/04/01 05:55:46;;;;;;;6.03;3.72;;;0.60;99.90;;;;;;5053130;28;20056;-83
2022/04/01 05:58:12;;;;;;;6.28;3.80;;;0.60;99.90;;;;;;5035093;28;20136;-83
2022/04/01 06:00:49;;;;;;;6.93;4.00;;;0.60;99.90;;;;;;5035072;28;20064;-84
2022/04/01 06:03:52;;;;;;;6.38;4.00;;;0.60;99.90;;;;;;5035204;28;20499;-83
2022/04/01 06:06:27;;;;;;;6.33;3.80;;;0.60;99.90;;;;;;5053197;28;20067;-83
2022/04/01 06:09:33;;;;;;;7.32;4.30;;;0.60;99.90;;;;;;5035525;28;20482;-84
2022/04/01 06:12:01;;;;;;;5.43;4.07;;;0.60;99.90;;;;;;5053041;28;20108;-84
2022/04/01 06:14:54;;;;;;;5.72;3.72;;;0.60;99.90;;;;;;5053334;28;20111;-85
2022/04/01 06:17:41;;;;;;;7.90;3.83;;;0.60;99.90;;;;;;5053480;28;20490;-85
2022/04/01 06:20:08;;;;;;;5.80;3.20;;;0.70;99.90;;;;;;5053113;28;20037;-84
2022/04/01 06:22:40;;;;;;;9.07;4.07;;;0.60;99.90;;;;;;5035857;28;20033;-84
2022/04/01 06:25:13;;;;;;;9.55;4.38;;;0.60;99.90;;;;;;5036923;28;20037;-84
2022/04/01 06:27:45;;;;;;;6.05;3.88;;;0.70;99.90;;;;;;5036578;28;20045;-84
2022/04/01 06:30:22;;;;;;;7.10;4.05;;;0.70;99.90;;;;;;5036792;28;20375;-84
2022/04/01 06:33:04;;;;;;;6.78;4.00;;;0.70;99.90;;;;;;5053939;28;20025;-83
2022/04/01 06:36:00;;;;;;;7.82;3.80;;;0.70;99.90;;;;;;5053611;28;20073;-83
2022/04/01 06:38:46;;;;;;;8.52;3.90;;;0.70;99.90;;;;;;5028747;28;20037;-83
2022/04/01 06:41:18;;;;;;;6.40;3.97;;;0.70;99.90;;;;;;5035602;28;20035;-84
2022/04/01 06:43:43;;;;;;;7.72;3.75;;;0.70;99.90;;;;;;5037835;28;20045;-84
2022/04/01 06:46:10;;;;;;;6.25;3.47;;;0.70;99.90;;;;;;5042203;28;20032;-84
2022/04/01 06:48:36;;;;;;;6.68;3.67;;;0.70;99.90;;;;;;5041024;28;20025;-84
2022/04/01 06:51:02;;;;;;;7.68;4.03;;;0.80;99.90;;;;;;5056710;28;20033;-85
2022/04/01 06:53:28;;;;;;;7.50;4.10;;;0.80;99.90;;;;;;5039600;28;20033;-84
2022/04/01 06:55:53;;;;;;;5.18;3.40;;;0.80;99.90;;;;;;5038356;28;20033;-82
2022/04/01 06:58:20;;;;;;;9.10;3.90;;;0.80;99.90;;;;;;5037979;28;20037;-83
2022/04/01 07:00:45;;;;;;;7.88;4.20;;;0.80;99.90;;;;;;5038609;28;20437;-83
2022/04/01 07:03:12;;;;;;;6.32;4.30;;;0.80;99.90;;;;;;5056359;28;20059;-84
2022/04/01 07:05:39;;;;;;;6.20;3.88;;;0.80;99.90;;;;;;5039056;28;20096;-83
2022/04/01 07:08:06;;;;;;;6.35;3.88;;;0.90;99.90;;;;;;5038675;28;20021;-83
2022/04/01 07:10:32;;;;;;;6.72;4.00;;;0.90;99.90;;;;;;5039048;28;20398;-86
2022/04/01 07:12:58;;;;;;;6.07;3.72;;;0.90;99.90;;;;;;5039552;28;20033;-84
2022/04/01 07:15:24;;;;;;;6.85;3.92;;;1.00;99.90;;;;;;5056833;28;20037;-84
2022/04/01 07:17:51;;;;;;;6.10;3.70;;;1.00;99.90;;;;;;5036646;28;20066;-82
2022/04/01 07:20:16;;;;;;;6.90;3.83;;;1.00;99.90;;;;;;5035726;28;20033;-84
2022/04/01 07:22:42;;;;;;;6.95;3.53;;;1.00;99.90;;;;;;5036501;28;20033;-82
2022/04/01 07:25:12;;;;;;;7.18;3.90;;;1.00;99.90;;;;;;5052573;28;20562;-86
2022/04/01 07:27:38;;;;;;;5.43;3.80;;;1.00;99.90;;;;;;5036523;28;20052;-85
2022/04/01 07:30:09;;;;;;;7.45;3.83;;;1.00;99.90;;;;;;5056348;28;20021;-85
2022/04/01 07:32:35;;;;;;;6.55;3.60;;;1.00;99.90;;;;;;5056545;28;20032;-85
2022/04/01 07:35:11;;;;;;;6.45;3.85;;;1.00;99.90;;;;;;5056592;28;20082;-86
2022/04/01 07:37:37;;;;;;;6.20;4.18;;;1.00;99.90;;;;;;5039114;28;20475;-85
2022/04/01 07:40:05;;;;;;;6.20;3.80;;;1.00;99.90;;;;;;5056530;28;20037;-88
2022/04/01 07:42:31;;;;;;;6.18;3.20;;;1.00;99.90;;;;;;5040127;28;20029;-88
2022/04/01 07:44:57;;;;;;;6.38;3.45;;;1.00;99.90;;;;;;5039681;28;20049;-87
2022/04/01 07:47:23;;;;;;;6.03;3.30;;;1.10;99.90;;;;;;5056945;28;20502;-87
2022/04/01 07:49:51;;;;;;;4.88;2.88;;;1.10;99.90;;;;;;5057046;28;20060;-85
2022/04/01 07:52:19;;;;;;;6.22;3.67;;;1.20;99.90;;;;;;5055537;28;20037;-84
2022/04/01 07:54:45;;;;;;;4.63;2.67;;;1.30;99.90;;;;;;5036172;28;20126;-84
2022/04/01 07:57:13;;;;;;;6.32;2.75;;;1.30;99.90;;;;;;5035178;28;20082;-86
2022/04/01 07:59:39;;;;;;;4.78;2.90;;;1.30;99.90;;;;;;5034390;28;20037;-84
2022/04/01 08:02:06;;;;;;;5.10;3.00;;;1.30;99.90;;;;;;5038476;28;20041;-83
2022/04/01 08:04:31;;;;;;;6.03;2.97;;;1.40;99.90;;;;;;5058041;28;20041;-85
2022/04/01 08:06:58;;;;;;;6.20;3.10;;;1.40;99.90;;;;;;5056839;28;20402;-84
2022/04/01 08:09:24;;;;;;;7.00;2.88;;;1.40;99.90;;;;;;5072242;28;20029;-85
2022/04/01 08:11:51;;;;;;;5.10;2.63;;;1.50;99.90;;;;;;5054403;28;20143;-86
2022/04/01 08:14:18;;;;;;;4.65;2.20;;;1.50;99.90;;;;;;5054744;28;20632;-86
2022/04/01 08:16:45;;;;;;;3.90;2.40;;;1.60;99.90;;;;;;5073334;28;20036;-85
2022/04/01 08:19:11;;;;;;;4.28;2.30;;;1.60;99.90;;;;;;5056113;28;20040;-84
2022/04/01 08:21:37;;;;;;;6.93;2.50;;;1.70;99.90;;;;;;5055204;28;20024;-85
2022/04/01 08:24:04;;;;;;;4.38;2.05;;;1.70;99.90;;;;;;5054532;28;20045;-86
2022/04/01 08:26:29;;;;;;;4.10;1.88;;;1.70;99.90;;;;;;5055657;28;20431;-87
2022/04/01 08:28:56;;;;;;;4.18;1.92;;;1.70;99.90;;;;;;5055870;28;20088;-86
2022/04/01 08:31:22;;;;;;;3.15;1.90;;;1.70;99.90;;;;;;5055604;28;20398;-85
2022/04/01 08:33:50;;;;;;;3.70;1.63;;;1.70;99.90;;;;;;5056131;28;20040;-86
2022/04/01 08:36:17;;;;;;;4.28;1.80;;;1.70;99.90;;;;;;5054930;28;20543;-86
2022/04/01 08:38:43;;;;;;;5.32;1.73;;;1.70;99.90;;;;;;5073323;28;20025;-87
2022/04/01 08:41:10;;;;;;;3.67;1.35;;;1.70;99.90;;;;;;5055066;28;20044;-86
2022/04/01 08:43:39;;;;;;;4.13;1.50;;;1.80;99.90;;;;;;5072825;28;20045;-83
2022/04/01 08:46:07;;;;;;;4.35;1.45;;;1.80;99.90;;;;;;5056191;28;20036;-88
2022/04/01 08:48:35;;;;;;;2.47;1.50;;;1.90;99.90;;;;;;5056179;28;20047;-87
2022/04/01 08:51:01;;;;;;;2.88;1.60;;;1.90;99.90;;;;;;5072698;28;20056;-87
2022/04/01 08:53:26;;;;;;;3.13;1.60;;;1.90;99.90;;;;;;5056011;28;20067;-86
2022/04/01 08:55:56;;;;;;;4.65;1.33;;;2.00;99.90;;;;;;5055145;28;20539;-86
2022/04/01 08:58:23;;;;;;;3.58;1.65;;;2.00;99.90;;;;;;5055495;28;20041;-88
2022/04/01 09:00:50;;;;;;;1.95;1.30;;;2.10;99.90;;;;;;5055434;28;20049;-86
2022/04/01 09:03:18;;;;;;;2.88;1.40;;;2.10;99.90;;;;;;5055083;28;20066;-85
2022/04/01 09:05:52;;;;;;;4.43;1.60;;;2.20;99.90;;;;;;5054450;28;20045;-86
2022/04/01 09:08:26;;;;;;;2.70;1.38;;;2.40;99.90;;;;;;5073777;28;20028;-87
2022/04/01 09:11:17;;;;;;;2.60;1.35;;;2.50;99.90;;;;;;5055552;28;20028;-84
2022/04/01 09:13:42;;;;;;;3.08;1.48;;;2.50;99.90;;;;;;5072393;28;20036;-85
2022/04/01 09:16:10;;;;;;;3.08;1.45;;;2.60;99.90;;;;;;5072487;28;20037;-86
2022/04/01 09:18:42;;;;;;;5.45;3.05;;;2.70;99.90;;;;;;5071751;28;20024;-86
2022/04/01 09:21:09;;;;;;;5.68;2.20;;;2.80;99.90;;;;;;5053734;28;20028;-85
2022/04/01 09:23:35;;;;;;;7.15;1.85;;;2.90;99.90;;;;;;5053685;28;20040;-86
2022/04/01 09:26:02;;;;;;;4.45;2.05;;;3.10;99.90;;;;;;5053298;28;20035;-87
2022/04/01 09:28:37;;;;;;;3.53;2.15;;;3.10;99.90;;;;;;5071085;28;20075;-86
2022/04/01 09:31:13;;;;;;;4.22;1.77;;;3.20;99.90;;;;;;5053039;28;20057;-85
2022/04/01 09:33:47;;;;;;;3.65;1.90;;;3.30;99.90;;;;;;5070514;28;20081;-85
2022/04/01 09:36:19;;;;;;;5.43;2.45;;;3.40;99.90;;;;;;5052696;28;20033;-86
2022/04/01 09:39:01;;;;;;;4.30;1.88;;;3.50;99.90;;;;;;5053194;28;20067;-86
2022/04/01 09:41:36;;;;;;;4.70;2.13;;;3.70;99.90;;;;;;5071635;28;20060;-88
2022/04/01 09:44:09;;;;;;;5.97;2.42;;;4.00;99.90;;;;;;5054961;28;20048;-87
2022/04/01 09:46:40;;;;;;;4.47;2.45;;;4.10;99.90;;;;;;5053883;28;20086;-87
2022/04/01 09:49:14;;;;;;;3.60;2.10;;;4.30;99.90;;;;;;5054643;28;20032;-89
2022/04/01 09:51:42;;;;;;;4.05;2.63;;;4.30;99.90;;;;;;5056663;28;20040;-89
2022/04/01 09:54:08;;;;;;;5.35;2.40;;;4.20;99.90;;;;;;5056008;28;20074;-90
2022/04/01 09:56:44;;;;;;;5.05;2.53;;;4.00;99.90;;;;;;5056295;28;20021;-90
2022/04/01 09:59:12;;;;;;;4.30;2.22;;;3.90;99.90;;;;;;5054971;28;20037;-86
2022/04/01 10:01:39;;;;;;;5.25;2.80;;;3.70;99.90;;;;;;5072134;28;20039;-90
2022/04/01 10:04:05;;;;;;;8.05;2.90;;;3.70;99.90;;;;;;5055763;28;20050;-88
2022/04/01 10:06:33;;;;;;;5.03;2.40;;;3.70;99.90;;;;;;5055362;28;20119;-88
2022/04/01 10:09:02;;;;;;;5.95;2.80;;;3.90;99.90;;;;;;5056541;28;20036;-91
2022/04/01 10:11:31;;;;;;;4.75;2.80;;;4.20;99.90;;;;;;5057845;28;20078;-94
2022/04/01 10:14:02;;;;;;;4.53;2.22;;;4.30;99.90;;;;;;5062017;28;20127;-91
2022/04/01 10:16:29;;;;;;;5.55;2.95;;;4.30;99.90;;;;;;5054188;28;20029;-89
2022/04/01 10:19:02;;;;;;;5.20;3.35;;;4.20;99.90;;;;;;5053937;28;20028;-90
2022/04/01 10:21:29;;;;;;;6.85;3.00;;;4.00;99.90;;;;;;5064495;28;20035;-90
2022/04/01 10:24:13;;;;;;;5.70;3.25;;;4.00;99.90;;;;;;5050084;28;20131;-89
2022/04/01 10:26:44;;;;;;;6.03;3.10;;;3.90;99.90;;;;;;5051237;28;20083;-91
2022/04/01 10:29:10;;;;;;;5.63;3.05;;;4.00;99.90;;;;;;5046882;28;20052;-90
2022/04/01 10:31:36;;;;;;;4.72;3.05;;;4.10;99.90;;;;;;5055469;28;20078;-90
2022/04/01 10:34:22;;;;;;;5.65;3.40;;;4.10;99.90;;;;;;5056393;28;20045;-91
2022/04/01 10:36:59;;;;;;;6.25;3.33;;;4.10;99.90;;;;;;5056716;28;20063;-91
2022/04/01 10:39:25;;;;;;;6.60;3.38;;;4.00;99.90;;;;;;5055716;28;20060;-91
2022/04/01 10:42:11;;;;;;;8.27;3.85;;;4.00;99.90;;;;;;5056369;28;20110;-90
2022/04/01 10:44:50;;;;;;;6.55;3.97;;;4.10;99.90;;;;;;5078719;28;20047;-89
2022/04/01 10:47:16;;;;;;;6.53;3.78;;;4.10;99.90;;;;;;5059005;28;20033;-88
2022/04/01 10:52:29;;;;;;;5.25;3.08;;;3.90;99.90;;;;;;5074457;28;20150;-90
2022/04/01 10:55:18;;;;;;;6.70;3.97;;;3.80;99.90;;;;;;5054902;28;20044;-87
2022/04/01 10:57:46;;;;;;;7.40;3.53;;;3.70;99.90;;;;;;5056289;28;20039;-90
2022/04/01 11:00:17;;;;;;;6.55;3.78;;;3.70;99.90;;;;;;5056673;28;20798;-89
2022/04/01 11:02:46;;;;;;;6.30;3.47;;;3.70;99.90;;;;;;5057297;28;20040;-89
2022/04/01 11:05:31;;;;;;;5.40;3.60;;;3.70;99.90;;;;;;5055582;28;20051;-92
2022/04/01 11:08:20;;;;;;;6.13;4.03;;;3.90;99.90;;;;;;5056324;28;20029;-90
2022/04/01 11:11:08;;;;;;;6.45;3.60;;;4.10;99.90;;;;;;5055927;28;20037;-91
2022/04/01 11:13:35;;;;;;;6.97;3.70;;;4.20;99.90;;;;;;5055731;28;20032;-87
2022/04/01 11:16:21;;;;;;;6.10;3.78;;;4.30;99.90;;;;;;5054637;28;20141;-89
2022/04/01 11:19:13;;;;;;;5.13;3.38;;;4.70;99.90;;;;;;5054389;28;20064;-87
2022/04/01 11:21:43;;;;;;;5.43;3.47;;;4.80;99.90;;;;;;5053595;28;20029;-86
2022/04/01 11:24:31;;;;;;;6.28;3.50;;;4.70;99.90;;;;;;5053043;28;20052;-86
2022/04/01 11:27:05;;;;;;;5.50;3.35;;;4.60;99.90;;;;;;5071589;28;20121;-89
2022/04/01 11:29:31;;;;;;;7.32;3.80;;;4.60;99.90;;;;;;5050802;28;20048;-88
2022/04/01 11:32:08;;;;;;;5.88;3.78;;;4.50;99.90;;;;;;5054690;28;20067;-89
2022/04/01 11:34:54;;;;;;;7.40;4.07;;;4.40;99.90;;;;;;5050253;28;20044;-87
2022/04/01 11:37:20;;;;;;;6.25;4.05;;;4.30;99.90;;;;;;5049483;28;20541;-88
2022/04/01 11:39:46;;;;;;;7.25;4.30;;;4.20;99.90;;;;;;5053030;28;20041;-87
2022/04/01 11:42:12;;;;;;;9.65;4.30;;;4.10;99.90;;;;;;5053711;28;20541;-90
2022/04/01 11:44:38;;;;;;;6.72;4.07;;;4.00;99.90;;;;;;5052424;28;20048;-88
2022/04/01 11:47:04;;;;;;;8.13;4.80;;;4.00;99.90;;;;;;5052449;28;20040;-89
2022/04/01 11:49:29;;;;;;;6.07;4.35;;;3.90;99.90;;;;;;5052196;28;20098;-87
2022/04/01 11:51:56;;;;;;;6.72;4.38;;;3.90;99.90;;;;;;5054451;28;20047;-86
2022/04/01 11:54:22;;;;;;;8.15;4.93;;;3.90;99.90;;;;;;5054968;28;20116;-88
2022/04/01 11:56:52;;;;;;;6.18;4.50;;;3.90;99.90;;;;;;5052473;28;20502;-87
2022/04/01 11:59:18;;;;;;;6.80;4.43;;;4.10;99.90;;;;;;5066407;28;20536;-86
2022/04/01 12:01:54;;;;;;;6.88;4.55;;;4.30;99.90;;;;;;5037681;28;20032;-88
2022/04/01 12:04:28;;;;;;;7.65;4.78;;;4.30;99.90;;;;;;5059411;28;20076;-88
2022/04/01 12:09:37;;;;;;;6.85;4.70;;;4.40;99.90;;;;;;5053415;28;20056;-86
2022/04/01 12:12:04;;;;;;;8.38;5.68;;;4.70;99.90;;;;;;5053188;28;20045;-88
2022/04/01 12:14:31;;;;;;;7.53;4.60;;;4.90;99.90;;;;;;5052948;28;20041;-88
2022/04/01 12:16:57;;;;;;;7.43;4.75;;;4.90;99.90;;;;;;5053343;28;20556;-85
2022/04/01 12:19:23;;;;;;;7.20;4.68;;;4.80;99.90;;;;;;5052225;28;20072;-88
2022/04/01 12:21:51;;;;;;;6.93;5.05;;;4.60;99.90;;;;;;5052119;28;20071;-88
2022/04/01 12:24:17;;;;;;;7.70;5.18;;;4.40;99.90;;;;;;5051130;28;20045;-86
2022/04/01 12:26:46;;;;;;;8.10;5.05;;;4.40;99.90;;;;;;5051290;28;20033;-87
2022/04/01 12:29:23;;;;;;;7.05;4.93;;;4.30;99.90;;;;;;5051350;28;20056;-88
2022/04/01 12:31:59;;;;;;;7.97;5.25;;;4.20;99.90;;;;;;5054067;28;20095;-88
2022/04/01 12:34:26;;;;;;;7.45;4.57;;;4.10;99.90;;;;;;5069167;28;20490;-90
2022/04/01 12:36:56;;;;;;;8.75;4.65;;;4.20;99.90;;;;;;5061509;28;20186;-91
2022/04/01 12:39:22;;;;;;;8.00;4.93;;;4.20;99.90;;;;;;5054166;28;20100;-91
2022/04/01 12:41:56;;;;;;;6.60;4.80;;;4.30;99.90;;;;;;5053374;28;20061;-86
2022/04/01 12:44:24;;;;;;;7.47;4.43;;;4.40;99.90;;;;;;5056558;28;20497;-88
2022/04/01 12:46:50;;;;;;;8.55;4.78;;;4.50;99.90;;;;;;5052104;28;20033;-87
2022/04/01 12:49:19;;;;;;;7.15;3.97;;;4.50;99.90;;;;;;5052568;28;20052;-90
2022/04/01 12:52:16;;;;;;;6.95;4.40;;;4.40;99.90;;;;;;5052291;28;20041;-89
2022/04/01 12:54:53;;;;;;;6.88;5.00;;;4.40;99.90;;;;;;5047556;28;20033;-88
2022/04/01 12:57:20;;;;;;;7.53;4.82;;;4.30;99.90;;;;;;5052361;28;20546;-90
2022/04/01 12:59:48;;;;;;;6.90;5.03;;;4.40;99.90;;;;;;5052225;28;20044;-90
2022/04/01 13:02:17;;;;;;;7.60;4.47;;;4.50;99.90;;;;;;5053632;28;20065;-88
2022/04/01 13:04:49;;;;;;;7.43;5.00;;;4.60;99.90;;;;;;5051475;28;20072;-89
2022/04/01 13:07:20;;;;;;;6.75;4.65;;;4.70;99.90;;;;;;5054351;28;20049;-91
2022/04/01 13:09:54;;;;;;;6.30;4.25;;;4.90;99.90;;;;;;5070276;28;20033;-91
2022/04/01 13:12:44;;;;;;;7.75;4.68;;;5.10;99.90;;;;;;5053083;28;20067;-89
2022/04/01 13:15:13;;;;;;;6.38;4.65;;;5.20;99.90;;;;;;5044511;28;20434;-88
2022/04/01 13:17:50;;;;;;;6.68;4.40;;;5.60;99.90;;;;;;5056398;28;20102;-85
2022/04/01 13:20:29;;;;;;;6.03;3.90;;;6.20;99.90;;;;;;5059147;28;20033;-86
2022/04/01 13:22:56;;;;;;;6.13;3.90;;;6.60;99.90;;;;;;5055004;28;20048;-88
2022/04/01 13:25:23;;;;;;;7.03;4.22;;;6.70;99.90;;;;;;5052342;28;20044;-89